Archiv-/Tagesdaten

--Timestamp---	Temp	Chill	HIndex	Humid	Dewpt	 Wind 	HiWind	WindDir	Rain 	Barom	Solar	 ET  	 UV 
--------------	----	-----	------	-----	-----	------	------	-------	-----	-----	-----	-----	----
20100118 00:00	1.8	-1.0	1.8	85	-0.4	10	16	270	0.0	1024.0	0	0.025	0.0
20100118 00:05	1.8	-0.6	1.8	85	-0.5	8	16	270	0.0	1024.0	0	0.000	0.0
20100118 00:10	1.8	-0.6	1.8	85	-0.5	8	18	270	0.0	1024.0	0	0.000	0.0
20100118 00:15	1.8	-1.1	1.8	85	-0.5	10	16	270	0.0	1024.1	0	0.000	0.0
20100118 00:20	1.8	-0.6	1.8	86	-0.3	8	14	270	0.0	1024.1	0	0.000	0.0
20100118 00:25	1.9	-1.0	1.9	86	-0.2	10	18	248	0.0	1024.2	0	0.000	0.0
20100118 00:30	1.9	-0.9	1.9	85	-0.3	10	16	248	0.0	1024.1	0	0.000	0.0
20100118 00:35	1.9	-0.5	1.9	85	-0.3	8	16	248	0.0	1024.1	0	0.000	0.0
20100118 00:40	1.9	-0.5	1.9	85	-0.3	8	11	248	0.0	1024.0	0	0.000	0.0
20100118 00:45	1.9	-0.5	1.9	85	-0.3	8	11	248	0.0	1024.1	0	0.000	0.0
20100118 00:50	1.9	0.0	1.9	86	-0.2	6	13	248	0.0	1024.2	0	0.000	0.0
20100118 00:55	1.9	1.9	1.9	86	-0.2	5	8	270	0.0	1024.1	0	0.000	0.0
20100118 01:00	1.8	1.8	1.8	86	-0.3	5	8	270	0.0	1024.2	0	0.025	0.0
20100118 01:05	1.9	1.9	1.9	86	-0.2	3	6	248	0.0	1024.2	0	0.000	0.0
20100118 01:10	1.9	1.9	1.9	86	-0.2	3	6	248	0.0	1024.3	0	0.000	0.0
20100118 01:15	1.8	1.8	1.8	86	-0.3	3	6	248	0.0	1024.3	0	0.000	0.0
20100118 01:20	1.8	1.8	1.8	86	-0.3	3	6	248	0.0	1024.4	0	0.000	0.0
20100118 01:25	1.8	1.8	1.8	86	-0.3	3	6	248	0.0	1024.4	0	0.000	0.0
20100118 01:30	1.8	1.8	1.8	86	-0.3	3	5	248	0.0	1024.4	0	0.000	0.0
20100118 01:35	1.8	1.8	1.8	86	-0.3	5	8	248	0.0	1024.4	0	0.000	0.0
20100118 01:40	1.8	1.8	1.8	86	-0.3	5	8	270	0.0	1024.4	0	0.000	0.0
20100118 01:45	1.9	1.9	1.9	86	-0.2	5	10	225	0.0	1024.4	0	0.000	0.0
20100118 01:50	1.9	1.9	1.9	86	-0.1	5	8	248	0.0	1024.4	0	0.000	0.0
20100118 01:55	1.9	1.9	1.9	86	-0.1	5	10	248	0.0	1024.4	0	0.000	0.0
20100118 02:00	2.0	0.1	2.0	86	-0.1	6	10	248	0.0	1024.5	0	0.000	0.0
20100118 02:05	2.0	0.1	2.0	85	-0.3	6	14	248	0.0	1024.5	0	0.000	0.0
20100118 02:10	2.0	2.0	2.0	85	-0.3	5	10	270	0.0	1024.5	0	0.000	0.0
20100118 02:15	2.0	2.0	2.0	85	-0.3	5	10	248	0.0	1024.5	0	0.000	0.0
20100118 02:20	1.9	0.1	1.9	85	-0.3	6	11	248	0.0	1024.5	0	0.000	0.0
20100118 02:25	1.9	-0.5	1.9	85	-0.3	8	13	225	0.0	1024.5	0	0.000	0.0
20100118 02:30	1.9	1.9	1.9	85	-0.4	5	11	248	0.0	1024.6	0	0.000	0.0
20100118 02:35	1.8	-0.1	1.8	85	-0.4	6	11	248	0.0	1024.6	0	0.000	0.0
20100118 02:40	1.7	-0.7	1.7	86	-0.4	8	14	248	0.0	1024.5	0	0.000	0.0
20100118 02:45	1.7	-0.8	1.7	86	-0.4	8	21	248	0.0	1024.5	0	0.000	0.0
20100118 02:50	1.6	-0.8	1.6	86	-0.5	8	14	248	0.0	1024.7	0	0.000	0.0
20100118 02:55	1.6	-0.3	1.6	86	-0.5	6	11	248	0.0	1024.6	0	0.000	0.0
20100118 03:00	1.6	-0.8	1.6	86	-0.5	8	13	225	0.0	1024.6	0	0.000	0.0
20100118 03:05	1.6	-0.3	1.6	86	-0.5	6	11	248	0.0	1024.9	0	0.000	0.0
20100118 03:10	1.6	-0.8	1.6	86	-0.5	8	11	225	0.0	1024.9	0	0.000	0.0
20100118 03:15	1.6	-0.3	1.6	86	-0.5	6	14	248	0.0	1025.0	0	0.000	0.0
20100118 03:20	1.6	-0.4	1.6	86	-0.5	6	11	248	0.0	1025.0	0	0.000	0.0
20100118 03:25	1.6	-0.9	1.6	86	-0.5	8	11	248	0.0	1025.0	0	0.000	0.0
20100118 03:30	1.6	-0.4	1.6	86	-0.5	6	10	225	0.0	1025.0	0	0.000	0.0
20100118 03:35	1.6	-0.4	1.6	86	-0.5	6	8	225	0.0	1025.0	0	0.000	0.0
20100118 03:40	1.6	1.6	1.6	87	-0.4	5	10	225	0.0	1025.0	0	0.000	0.0
20100118 03:45	1.6	-0.9	1.6	87	-0.4	8	14	248	0.0	1025.0	0	0.000	0.0
20100118 03:50	1.6	-0.4	1.6	87	-0.4	6	11	225	0.0	1024.9	0	0.000	0.0
20100118 03:55	1.6	-0.4	1.6	87	-0.4	6	13	248	0.0	1024.9	0	0.000	0.0
20100118 04:00	1.6	1.6	1.6	87	-0.4	5	13	270	0.0	1024.9	0	0.000	0.0
20100118 04:05	1.5	-0.4	1.5	87	-0.4	6	10	270	0.0	1025.0	0	0.000	0.0
20100118 04:10	1.5	-0.4	1.5	87	-0.4	6	10	225	0.0	1025.0	0	0.000	0.0
20100118 04:15	1.5	-0.4	1.5	87	-0.4	6	11	248	0.0	1024.9	0	0.000	0.0
20100118 04:20	1.5	1.5	1.5	87	-0.4	5	10	225	0.0	1024.9	0	0.000	0.0
20100118 04:25	1.4	1.4	1.4	87	-0.5	5	10	248	0.0	1024.9	0	0.000	0.0
20100118 04:30	1.4	-0.5	1.4	87	-0.5	6	10	248	0.0	1024.9	0	0.000	0.0
20100118 04:35	1.4	-0.5	1.4	87	-0.5	6	10	248	0.0	1024.9	0	0.000	0.0
20100118 04:40	1.5	-0.4	1.5	87	-0.4	6	11	270	0.0	1024.9	0	0.000	0.0
20100118 04:45	1.6	1.6	1.6	87	-0.4	5	10	248	0.0	1025.0	0	0.000	0.0
20100118 04:50	1.6	1.6	1.6	87	-0.4	5	8	225	0.0	1025.0	0	0.000	0.0
20100118 04:55	1.6	1.6	1.6	87	-0.4	5	10	270	0.0	1025.0	0	0.000	0.0
20100118 05:00	1.6	1.6	1.6	87	-0.4	5	10	270	0.0	1024.9	0	0.000	0.0
20100118 05:05	1.6	1.6	1.6	87	-0.4	5	8	248	0.0	1024.9	0	0.000	0.0
20100118 05:10	1.5	1.5	1.5	87	-0.4	5	6	270	0.0	1025.0	0	0.000	0.0
20100118 05:15	1.4	1.4	1.4	87	-0.5	5	8	270	0.0	1025.0	0	0.000	0.0
20100118 05:20	1.4	1.4	1.4	87	-0.5	3	6	270	0.0	1025.1	0	0.000	0.0
20100118 05:25	1.3	-1.2	1.3	87	-0.6	8	27	292	0.0	1025.2	0	0.000	0.0
20100118 05:30	1.3	-2.7	1.3	88	-0.4	14	27	270	0.2	1025.3	0	0.000	0.0
20100118 05:35	1.3	-1.2	1.3	89	-0.3	8	14	270	0.2	1025.2	0	0.000	0.0
20100118 05:40	1.3	-1.2	1.3	89	-0.3	8	16	292	0.0	1025.2	0	0.000	0.0
20100118 05:45	1.2	-2.1	1.2	90	-0.2	11	19	292	0.0	1025.2	0	0.000	0.0
20100118 05:50	1.2	-2.5	1.2	90	-0.2	13	19	292	0.0	1025.1	0	0.000	0.0
20100118 05:55	1.2	-1.7	1.2	90	-0.2	10	16	292	0.0	1025.1	0	0.000	0.0
20100118 06:00	1.2	-0.8	1.2	90	-0.3	6	10	270	0.0	1025.1	0	0.000	0.0
20100118 06:05	1.2	-0.8	1.2	90	-0.3	6	10	292	0.0	1025.2	0	0.000	0.0
20100118 06:10	1.1	-0.9	1.1	91	-0.2	6	11	292	0.0	1025.3	0	0.000	0.0
20100118 06:15	1.1	1.1	1.1	91	-0.2	5	11	248	0.0	1025.3	0	0.000	0.0
20100118 06:20	1.1	1.1	1.1	91	-0.2	5	8	292	0.0	1025.3	0	0.000	0.0
20100118 06:25	1.0	1.0	1.0	91	-0.3	5	6	292	0.0	1025.3	0	0.000	0.0
20100118 06:30	1.0	1.0	1.0	91	-0.3	5	8	292	0.0	1025.3	0	0.000	0.0
20100118 06:35	0.9	0.9	0.9	91	-0.4	3	8	270	0.0	1025.3	0	0.000	0.0
20100118 06:40	1.0	1.0	1.0	91	-0.3	3	6	270	0.0	997.5	0	0.000	0.0
20100118 06:45	1.0	1.0	1.0	91	-0.3	3	6	270	0.0	1025.3	0	0.000	0.0
20100118 06:50	1.0	1.0	1.0	91	-0.3	3	6	292	0.0	1025.3	0	0.000	0.0
20100118 06:55	1.0	1.0	1.0	91	-0.3	2	6	292	0.0	1025.3	0	0.000	0.0
20100118 07:00	0.9	0.9	0.9	91	-0.4	3	6	292	0.0	1025.3	0	0.000	0.0
20100118 07:05	0.9	0.9	0.9	91	-0.4	3	5	292	0.0	1025.3	0	0.000	0.0
20100118 07:10	1.0	1.0	1.0	91	-0.3	2	5	292	0.0	1025.3	0	0.000	0.0
20100118 07:15	0.9	0.9	0.9	91	-0.4	3	5	292	0.0	1025.4	0	0.000	0.0
20100118 07:20	0.9	0.9	0.9	91	-0.4	2	5	292	0.0	1025.4	0	0.000	0.0
20100118 07:25	0.9	0.9	0.9	91	-0.4	3	5	292	0.0	886.0	0	0.000	0.0
20100118 07:30	0.9	0.9	0.9	91	-0.4	2	5	292	0.0	1025.5	0	0.000	0.0
20100118 07:35	0.9	0.9	0.9	91	-0.4	3	5	292	0.0	1025.7	0	0.000	0.0
20100118 07:40	1.0	1.0	1.0	91	-0.3	3	6	292	0.0	1025.5	0	0.000	0.0
20100118 07:45	1.0	1.0	1.0	91	-0.3	3	6	292	0.0	1025.6	0	0.000	0.0
20100118 07:50	1.0	1.0	1.0	91	-0.3	3	6	292	0.0	1025.6	0	0.000	0.0
20100118 07:55	1.0	1.0	1.0	91	-0.3	5	10	292	0.0	1025.7	0	0.000	0.0
20100118 08:00	1.1	-1.0	1.1	91	-0.2	6	10	292	0.0	997.8	0	0.000	0.0
20100118 08:05	1.1	1.1	1.1	91	-0.2	5	8	292	0.0	1025.6	0	0.000	0.0
20100118 08:10	1.2	1.2	1.2	91	-0.1	5	10	292	0.0	1025.7	0	0.000	0.0
20100118 08:15	1.2	1.2	1.2	91	-0.1	3	10	292	0.0	1025.8	3	0.000	0.0
20100118 08:20	1.2	1.2	1.2	91	-0.1	3	6	270	0.0	1025.8	6	0.000	0.0
20100118 08:25	1.2	1.2	1.2	91	-0.1	3	6	270	0.0	1025.8	8	0.000	0.0
20100118 08:30	1.2	1.2	1.2	91	-0.1	5	8	270	0.0	1025.9	11	0.000	0.0
20100118 08:35	1.2	1.2	1.2	91	-0.1	5	8	270	0.0	1025.9	11	0.000	0.0
20100118 08:40	1.3	-0.7	1.3	91	-0.0	6	11	270	0.0	1026.0	14	0.000	0.0
20100118 08:45	1.3	-0.6	1.3	91	0.0	6	11	270	0.0	1025.9	15	0.000	0.0
20100118 08:50	1.3	-0.6	1.3	90	-0.1	6	11	270	0.0	1025.9	17	0.000	0.0
20100118 08:55	1.3	-1.2	1.3	90	-0.1	8	11	270	0.0	1025.9	20	0.000	0.0
20100118 09:00	1.3	-0.6	1.3	90	-0.1	6	11	270	0.0	1025.9	25	0.000	0.0
20100118 09:05	1.4	1.4	1.4	90	-0.0	5	10	270	0.0	1025.9	26	0.000	0.0
20100118 09:10	1.5	-0.4	1.5	90	0.0	6	11	270	0.0	1026.0	32	0.000	0.0
20100118 09:15	1.6	-0.3	1.6	89	-0.0	6	14	270	0.0	1026.0	38	0.000	0.0
20100118 09:20	1.7	-0.3	1.7	89	0.1	6	14	270	0.0	1026.1	25	0.000	0.0
20100118 09:25	1.8	-0.6	1.8	89	0.2	8	19	270	0.0	1026.2	18	0.000	0.0
20100118 09:30	1.8	-0.6	1.8	88	0.1	8	18	248	0.0	1026.2	25	0.000	0.0
20100118 09:35	1.8	-1.0	1.8	88	0.1	10	18	292	0.0	1026.4	28	0.000	0.0
20100118 09:40	1.8	-2.3	1.8	88	0.1	16	23	292	0.0	1026.4	17	0.000	0.0
20100118 09:45	1.7	-1.9	1.7	89	0.1	13	24	292	0.2	1026.5	23	0.000	0.0
20100118 09:50	1.5	-1.4	1.5	89	-0.1	10	21	292	0.0	1026.4	49	0.000	0.0
20100118 09:55	1.5	-1.4	1.5	90	0.0	10	16	270	0.0	1026.4	70	0.000	0.0
20100118 10:00	1.6	-0.4	1.6	90	0.1	6	11	270	0.0	1026.5	86	0.025	0.0
20100118 10:05	1.6	-1.4	1.6	90	0.1	10	19	270	0.0	1026.5	98	0.000	0.0
20100118 10:10	1.6	-1.3	1.6	90	0.2	10	19	270	0.0	1026.5	81	0.000	0.0
20100118 10:15	1.7	-1.6	1.7	90	0.2	11	23	292	0.0	1026.6	55	0.000	0.0
20100118 10:20	1.6	-2.4	1.6	90	0.1	14	23	270	0.0	1026.6	52	0.000	0.0
20100118 10:25	1.4	-1.9	1.4	90	-0.0	11	21	292	0.0	1026.7	38	0.000	0.0
20100118 10:30	1.4	-1.6	1.4	90	-0.1	10	23	270	0.0	1026.8	33	0.000	0.0
20100118 10:35	1.3	-1.2	1.3	91	0.0	8	14	292	0.0	1026.7	46	0.000	0.0
20100118 10:40	1.3	-0.6	1.3	91	0.0	6	10	292	0.0	1026.8	58	0.000	0.0
20100118 10:45	1.3	-0.6	1.3	91	0.0	6	10	248	0.0	1026.7	70	0.000	0.0
20100118 10:50	1.4	-0.5	1.4	91	0.1	6	10	270	0.0	1026.8	96	0.000	0.3
20100118 10:55	1.5	-0.4	1.5	91	0.2	6	10	270	0.0	1026.8	121	0.000	0.5
20100118 11:00	1.7	-0.3	1.7	91	0.4	6	10	270	0.0	1026.8	105	0.025	0.2
20100118 11:05	1.7	1.7	1.7	91	0.4	5	10	270	0.0	1026.7	97	0.000	0.2
20100118 11:10	1.8	-0.1	1.8	91	0.5	6	10	248	0.0	1026.6	90	0.000	0.5
20100118 11:15	1.9	0.0	1.9	91	0.6	6	13	270	0.0	1026.6	95	0.000	0.6
20100118 11:20	2.0	0.1	2.0	90	0.5	6	11	248	0.0	1026.5	209	0.000	0.7
20100118 11:25	2.3	0.5	2.3	91	1.0	6	11	248	0.0	1026.5	262	0.000	0.7
20100118 11:30	2.7	0.9	2.7	90	1.2	6	11	248	0.0	1026.4	302	0.000	0.8
20100118 11:35	2.8	1.1	2.8	89	1.2	6	11	292	0.0	1026.3	184	0.000	0.7
20100118 11:40	2.9	1.2	2.9	87	1.0	6	14	270	0.0	1026.3	148	0.000	0.6
20100118 11:45	3.0	0.8	3.0	87	1.1	8	13	292	0.0	1026.3	120	0.000	0.2
20100118 11:50	2.9	0.3	2.9	85	0.7	10	18	292	0.0	1026.2	115	0.000	0.3
20100118 11:55	2.9	-0.1	2.9	84	0.5	11	21	270	0.0	1026.1	109	0.000	0.5
20100118 12:00	2.8	-0.5	2.8	84	0.4	13	24	270	0.0	1026.1	108	0.051	0.5
20100118 12:05	2.8	-0.9	2.8	84	0.3	14	23	292	0.0	1026.1	116	0.000	0.5
20100118 12:10	2.7	-1.0	2.7	83	0.1	14	24	270	0.0	1026.0	104	0.000	0.1
20100118 12:15	2.7	-0.7	2.7	84	0.3	13	19	270	0.0	1025.9	93	0.000	0.0
20100118 12:20	2.7	-0.4	2.7	84	0.2	11	19	270	0.0	1025.9	82	0.000	0.0
20100118 12:25	2.6	-0.5	2.6	84	0.1	11	18	270	0.0	1025.9	77	0.000	0.0
20100118 12:30	2.6	-0.5	2.6	84	0.1	11	21	292	0.0	1025.9	75	0.000	0.0
20100118 12:35	2.5	-0.2	2.5	84	0.1	10	16	270	0.0	1025.9	71	0.000	0.0
20100118 12:40	2.5	-1.2	2.5	84	0.1	14	23	292	0.0	997.9	69	0.000	0.0
20100118 12:45	2.5	-1.2	2.5	89	0.9	14	19	292	0.0	942.1	79	0.000	0.0
20100118 12:50	2.5	-0.6	2.5	84	0.1	11	19	270	0.0	914.2	89	0.000	0.0
20100118 12:55	2.5	-0.9	2.5	84	0.1	13	19	270	0.0	1025.8	97	0.000	0.3
20100118 13:00	2.6	-0.5	2.6	84	0.1	11	19	270	0.0	1025.7	119	0.051	0.5
20100118 13:05	2.6	-0.8	2.6	84	0.2	13	21	292	0.0	1025.7	127	0.000	0.6
20100118 13:10	2.7	-0.0	2.7	84	0.2	10	18	270	0.0	1025.6	163	0.000	0.7
20100118 13:15	2.8	0.6	2.8	85	0.6	8	16	292	0.0	1025.6	182	0.000	0.6
20100118 13:20	2.9	0.7	2.9	85	0.7	8	18	270	0.0	1025.6	210	0.000	0.6
20100118 13:25	3.1	0.4	3.1	84	0.6	10	21	292	0.0	1025.5	218	0.000	0.6
20100118 13:30	3.2	1.0	3.2	84	0.8	8	14	292	0.0	1025.5	172	0.000	0.5
20100118 13:35	3.2	-0.1	3.2	82	0.4	13	19	270	0.0	1025.5	121	0.000	0.5
20100118 13:40	3.1	0.1	3.1	83	0.5	11	19	270	0.0	1025.5	121	0.000	0.5
20100118 13:45	3.1	0.9	3.1	83	0.5	8	19	292	0.0	1025.4	136	0.000	0.6
20100118 13:50	3.1	0.5	3.1	83	0.5	10	16	292	0.0	1025.4	117	0.000	0.5
20100118 13:55	3.1	1.4	3.1	83	0.5	6	14	315	0.0	1025.4	126	0.000	0.5
20100118 14:00	3.2	1.0	3.2	83	0.6	8	19	292	0.0	1025.3	144	0.076	0.5
20100118 14:05	3.2	1.0	3.2	83	0.6	8	18	292	0.0	1025.5	130	0.000	0.5
20100118 14:10	3.2	0.6	3.2	82	0.4	10	18	292	0.0	1025.5	98	0.000	0.1
20100118 14:15	3.2	1.0	3.2	82	0.4	8	16	292	0.0	1025.6	83	0.000	0.0
20100118 14:20	3.1	0.9	3.1	83	0.5	8	16	292	0.0	1025.5	125	0.000	0.5
20100118 14:25	3.2	1.5	3.2	83	0.6	6	16	292	0.0	1025.5	222	0.000	0.5
20100118 14:30	3.3	0.3	3.3	82	0.5	11	19	292	0.0	1025.5	189	0.000	0.5
20100118 14:35	3.3	0.4	3.3	82	0.6	11	19	292	0.0	1025.5	180	0.000	0.1
20100118 14:40	3.4	0.8	3.4	82	0.6	10	16	315	0.0	1025.6	132	0.000	0.0
20100118 14:45	3.4	1.2	3.4	82	0.6	8	16	292	0.0	1025.6	129	0.000	0.0
20100118 14:50	3.4	0.9	3.4	82	0.7	10	16	292	0.0	1025.6	113	0.000	0.0
20100118 14:55	3.4	0.8	3.4	82	0.6	10	18	315	0.0	1025.7	101	0.000	0.0
20100118 15:00	3.3	1.1	3.3	82	0.5	8	19	315	0.0	1025.7	80	0.051	0.0
20100118 15:05	3.1	0.9	3.1	82	0.3	8	18	315	0.0	1025.8	76	0.000	0.0
20100118 15:10	3.0	1.3	3.0	82	0.2	6	18	315	0.0	1025.8	68	0.000	0.0
20100118 15:15	2.9	1.2	2.9	83	0.3	6	14	292	0.0	1025.9	83	0.000	0.0
20100118 15:20	2.8	0.6	2.8	83	0.2	8	19	315	0.0	1025.9	67	0.000	0.0
20100118 15:25	2.8	1.0	2.8	83	0.2	6	11	315	0.0	1025.9	36	0.000	0.0
20100118 15:30	2.8	1.0	2.8	83	0.2	6	11	315	0.0	1025.9	29	0.000	0.0
20100118 15:35	2.7	1.0	2.7	83	0.1	6	11	315	0.0	1025.9	24	0.000	0.0
20100118 15:40	2.7	0.9	2.7	83	0.1	6	10	338	0.0	1025.9	12	0.000	0.0
20100118 15:45	2.6	2.6	2.6	84	0.1	5	8	315	0.0	1025.9	12	0.000	0.0
20100118 15:50	2.5	2.5	2.5	84	0.1	5	8	338	0.0	1026.0	8	0.000	0.0
20100118 15:55	2.4	2.4	2.4	85	0.2	5	8	315	0.0	1026.1	8	0.000	0.0
20100118 16:00	2.4	2.4	2.4	85	0.1	5	8	315	0.0	1026.2	12	0.025	0.0
20100118 16:05	2.3	2.3	2.3	85	0.1	5	8	315	0.0	1026.1	14	0.000	0.0
20100118 16:10	2.3	2.3	2.3	85	0.1	3	6	315	0.0	1026.2	14	0.000	0.0
20100118 16:15	2.3	2.3	2.3	85	0.1	3	8	315	0.0	1026.2	13	0.000	0.0
20100118 16:20	2.3	2.3	2.3	85	0.0	5	6	270	0.0	1026.3	10	0.000	0.0
20100118 16:25	2.3	2.3	2.3	85	0.0	3	5	270	0.0	1026.3	9	0.000	0.0
20100118 16:30	2.3	2.3	2.3	85	0.0	3	6	270	0.0	1026.3	9	0.000	0.0
20100118 16:35	2.2	2.2	2.2	85	-0.0	3	5	270	0.0	1026.4	6	0.000	0.0
20100118 16:40	2.2	2.2	2.2	85	-0.0	3	5	270	0.0	1026.4	1	0.000	0.0
20100118 16:45	2.2	2.2	2.2	85	-0.1	3	5	270	0.0	1026.4	0	0.000	0.0
20100118 16:50	2.2	2.2	2.2	85	-0.1	3	5	270	0.0	1026.5	0	0.000	0.0
20100118 16:55	2.1	2.1	2.1	85	-0.1	3	6	270	0.0	1026.5	0	0.000	0.0
20100118 17:00	2.1	2.1	2.1	85	-0.1	3	6	292	0.0	1026.5	0	0.000	0.0
20100118 17:05	2.1	2.1	2.1	85	-0.2	5	8	292	0.0	1026.6	0	0.000	0.0
20100118 17:10	2.1	2.1	2.1	85	-0.2	5	8	292	0.0	1026.7	0	0.000	0.0
20100118 17:15	2.0	2.0	2.0	85	-0.3	3	8	292	0.0	1026.7	0	0.000	0.0
20100118 17:20	1.9	1.9	1.9	86	-0.1	3	5	292	0.0	1026.6	0	0.000	0.0
20100118 17:25	1.9	1.9	1.9	86	-0.1	3	5	292	0.0	1026.7	0	0.000	0.0
20100118 17:30	1.9	1.9	1.9	86	-0.1	3	6	292	0.0	1026.7	0	0.000	0.0
20100118 17:35	1.9	1.9	1.9	86	-0.1	3	6	292	0.0	1026.7	0	0.000	0.0
20100118 17:40	1.9	1.9	1.9	86	-0.1	3	5	292	0.0	1026.7	0	0.000	0.0
20100118 17:45	1.9	1.9	1.9	86	-0.1	3	5	292	0.0	1026.8	0	0.000	0.0
20100118 17:50	1.9	1.9	1.9	86	-0.2	3	6	292	0.0	1026.9	0	0.000	0.0
20100118 17:55	1.9	1.9	1.9	86	-0.2	3	5	292	0.0	1027.0	0	0.000	0.0
20100118 18:00	1.9	1.9	1.9	86	-0.2	3	5	292	0.0	999.0	0	0.000	0.0
20100118 18:05	1.9	1.9	1.9	86	-0.2	2	5	292	0.0	915.2	0	0.000	0.0
20100118 18:10	1.9	1.9	1.9	86	-0.2	2	3	292	0.0	1027.0	0	0.000	0.0
20100118 18:15	1.9	1.9	1.9	86	-0.1	3	5	292	0.0	1027.1	0	0.000	0.0
20100118 18:20	1.9	1.9	1.9	86	-0.2	2	5	292	0.0	1027.0	0	0.000	0.0
20100118 18:25	1.9	1.9	1.9	86	-0.2	0	2	292	0.0	1027.1	0	0.000	0.0
20100118 18:30	1.9	1.9	1.9	86	-0.2	0	0	-100000	0.0	1027.1	0	0.000	0.0
20100118 18:35	1.9	1.9	1.9	86	-0.1	0	0	-100000	0.0	1027.1	0	0.000	0.0
20100118 18:40	2.0	2.0	2.0	86	-0.1	0	0	-100000	0.0	1027.1	0	0.000	0.0
20100118 18:45	2.1	2.1	2.1	86	-0.0	0	0	-100000	0.0	1026.9	0	0.000	0.0
20100118 18:50	2.1	2.1	2.1	85	-0.2	0	0	-100000	0.0	1027.0	0	0.000	0.0
20100118 18:55	2.1	2.1	2.1	85	-0.2	0	0	-100000	0.0	1027.0	0	0.000	0.0
20100118 19:00	2.1	2.1	2.1	85	-0.2	0	0	-100000	0.0	1027.0	0	0.000	0.0
20100118 19:05	2.1	2.1	2.1	85	-0.1	0	0	-100000	0.0	1027.0	0	0.000	0.0
20100118 19:10	2.2	2.2	2.2	85	-0.1	0	0	-100000	0.0	943.2	0	0.000	0.0
20100118 19:15	2.1	2.1	2.1	85	-0.1	0	0	-100000	0.0	943.2	0	0.000	0.0
20100118 19:20	1.9	1.9	1.9	85	-0.3	0	0	-100000	0.0	1027.0	0	0.000	0.0
20100118 19:25	1.9	1.9	1.9	85	-0.3	0	2	292	0.0	859.4	0	0.000	0.0
20100118 19:30	1.9	1.9	1.9	86	-0.2	0	0	-100000	0.0	1027.0	0	0.000	0.0
20100118 19:35	1.9	1.9	1.9	86	-0.2	0	0	-100000	0.0	1027.1	0	0.000	0.0
20100118 19:40	1.8	1.8	1.8	86	-0.3	0	0	-100000	0.0	1027.1	0	0.000	0.0
20100118 19:45	1.8	1.8	1.8	86	-0.3	2	3	292	0.0	1027.1	0	0.000	0.0
20100118 19:50	1.8	1.8	1.8	86	-0.3	0	3	292	0.0	1027.1	0	0.000	0.0
20100118 19:55	1.8	1.8	1.8	86	-0.3	2	3	292	0.0	1027.1	0	0.000	0.0
20100118 20:00	1.8	1.8	1.8	86	-0.3	0	3	292	0.0	1027.1	0	0.000	0.0
20100118 20:05	1.8	1.8	1.8	86	-0.3	0	2	292	0.0	1027.1	0	0.000	0.0
20100118 20:10	1.9	1.9	1.9	86	-0.2	2	3	292	0.0	1027.1	0	0.000	0.0
20100118 20:15	1.9	1.9	1.9	86	-0.1	0	3	292	0.0	1027.1	0	0.000	0.0
20100118 20:20	1.9	1.9	1.9	86	-0.1	3	3	292	0.0	1027.1	0	0.000	0.0
20100118 20:25	2.0	2.0	2.0	86	-0.1	2	3	292	0.0	1027.1	0	0.000	0.0
20100118 20:30	2.0	2.0	2.0	85	-0.3	0	0	-100000	0.0	1027.1	0	0.000	0.0
20100118 20:35	1.9	1.9	1.9	85	-0.4	0	0	-100000	0.0	1027.1	0	0.000	0.0
20100118 20:40	1.8	1.8	1.8	86	-0.3	0	0	-100000	0.0	1027.1	0	0.000	0.0
20100118 20:45	1.8	1.8	1.8	86	-0.3	0	3	292	0.0	1027.1	0	0.000	0.0
20100118 20:50	1.8	1.8	1.8	92	0.6	2	3	292	0.0	1027.1	0	0.000	0.0
20100118 20:55	1.8	1.8	1.8	86	-0.3	2	3	292	0.0	1027.1	0	0.000	0.0
20100118 21:00	1.8	1.8	1.8	86	-0.3	0	3	292	0.0	1027.1	0	0.000	0.0
20100118 21:05	1.7	1.7	1.7	86	-0.4	0	0	-100000	0.0	1027.1	0	0.000	0.0
20100118 21:10	1.6	1.6	1.6	86	-0.5	0	0	-100000	0.0	1027.1	0	0.000	0.0
20100118 21:15	1.6	1.6	1.6	87	-0.3	0	0	-100000	0.0	1027.1	0	0.000	0.0
20100118 21:20	1.6	1.6	1.6	87	-0.3	0	0	-100000	0.0	1027.1	0	0.000	0.0
20100118 21:25	1.6	1.6	1.6	87	-0.4	0	2	292	0.0	1027.1	0	0.000	0.0
20100118 21:30	1.6	1.6	1.6	87	-0.4	0	3	292	0.0	1027.1	0	0.000	0.0
20100118 21:35	1.6	1.6	1.6	87	-0.4	2	3	292	0.0	1027.1	0	0.000	0.0
20100118 21:40	1.6	1.6	1.6	87	-0.4	3	5	292	0.0	1027.1	0	0.000	0.0
20100118 21:45	1.6	1.6	1.6	87	-0.4	3	3	292	0.0	1027.1	0	0.000	0.0
20100118 21:50	1.5	1.5	1.5	87	-0.4	3	5	292	0.0	1027.1	0	0.000	0.0
20100118 21:55	1.4	1.4	1.4	87	-0.5	3	3	292	0.0	1027.1	0	0.000	0.0
20100118 22:00	1.3	1.3	1.3	88	-0.4	3	5	292	0.0	1027.1	0	0.000	0.0
20100118 22:05	1.3	1.3	1.3	88	-0.4	3	6	292	0.0	1027.1	0	0.000	0.0
20100118 22:10	1.3	1.3	1.3	88	-0.4	2	3	292	0.0	1027.1	0	0.000	0.0
20100118 22:15	1.4	1.4	1.4	88	-0.4	2	5	292	0.0	1027.1	0	0.000	0.0
20100118 22:20	1.3	1.3	1.3	87	-0.6	2	5	292	0.0	661.2	0	0.000	0.0
20100118 22:25	1.3	1.3	1.3	88	-0.4	0	0	-100000	0.0	661.2	0	0.000	0.0
20100118 22:30	1.3	1.3	1.3	88	-0.4	0	0	-100000	0.0	661.2	0	0.000	0.0
20100118 22:35	1.3	1.3	1.3	88	-0.4	0	0	-100000	0.0	661.2	0	0.000	0.0
20100118 22:40	1.3	1.3	1.3	88	-0.4	0	0	-100000	0.0	661.2	0	0.000	0.0
20100118 22:45	1.3	1.3	1.3	88	-0.4	0	0	-100000	0.0	661.2	0	0.000	0.0
20100118 22:50	1.3	1.3	1.3	88	-0.4	0	0	-100000	0.0	661.2	0	0.000	0.0
20100118 22:55	1.3	1.3	1.3	88	-0.4	0	0	-100000	0.0	661.2	0	0.000	0.0
20100118 23:00	1.3	1.3	1.3	88	-0.4	0	0	-100000	0.0	661.2	0	0.000	0.0
20100118 23:05	1.3	1.3	1.3	88	-0.4	2	3	292	0.0	661.2	0	0.000	0.0
20100118 23:10	1.3	1.3	1.3	88	-0.4	2	3	292	0.0	661.2	0	0.000	0.0
20100118 23:15	1.3	1.3	1.3	88	-0.4	0	0	-100000	0.0	661.2	0	0.000	0.0
20100118 23:20	1.3	1.3	1.3	88	-0.4	2	3	292	0.0	1026.4	0	0.000	0.0
20100118 23:25	1.3	1.3	1.3	88	-0.4	2	5	292	0.0	859.1	0	0.000	0.0
20100118 23:30	1.2	1.2	1.2	88	-0.5	2	3	292	0.0	859.1	0	0.000	0.0
20100118 23:35	1.2	1.2	1.2	88	-0.6	2	5	292	0.0	998.5	0	0.000	0.0
20100118 23:40	1.1	1.1	1.1	89	-0.5	3	6	292	0.0	998.5	0	0.000	0.0
20100118 23:45	1.1	1.1	1.1	89	-0.5	3	6	292	0.0	998.5	0	0.000	0.0
20100118 23:50	1.1	1.1	1.1	89	-0.6	0	3	292	0.0	998.5	0	0.000	0.0
20100118 23:55	1.1	1.1	1.1	89	-0.6	0	0	-100000	0.0	775.0	0	0.000	0.0



Please note the license to use and transfer of this data:
http://creativecommons.org/licenses/by-nc-sa/3.0/deed.en

Bitte beachten sie die Lizenz zur Verwertung und Weitergabe der Daten:
http://creativecommons.org/licenses/by-nc-sa/3.0/deed.de

zurück zur Übersicht der Archivdaten (Monats und Tagesdaten)

Cookies helfen bei der Bereitstellung von Inhalten. Durch die Nutzung dieser Seiten erklärst du dich damit einverstanden, dass Cookies auf deinem Rechner gespeichert werden. Weitere Information